sensor_id;sensor_type;location;lat;lon;timestamp;temperature;humidity
16479;DHT22;8350;52.316;10.530;2024-01-07T00:01:15;-0.60;99.90
16479;DHT22;8350;52.316;10.530;2024-01-07T00:03:42;-0.60;99.90
16479;DHT22;8350;52.316;10.530;2024-01-07T00:06:10;-0.60;99.90
16479;DHT22;8350;52.316;10.530;2024-01-07T00:08:37;-0.70;99.90
16479;DHT22;8350;52.316;10.530;2024-01-07T00:11:05;-0.70;99.90
16479;DHT22;8350;52.316;10.530;2024-01-07T00:13:34;-0.70;99.90
16479;DHT22;8350;52.316;10.530;2024-01-07T00:16:01;-0.70;99.90
16479;DHT22;8350;52.316;10.530;2024-01-07T00:18:30;-0.70;99.90
16479;DHT22;8350;52.316;10.530;2024-01-07T00:20:58;-0.80;99.90
16479;DHT22;8350;52.316;10.530;2024-01-07T00:23:26;-0.80;99.90
16479;DHT22;8350;52.316;10.530;2024-01-07T00:26:04;-0.70;99.90
16479;DHT22;8350;52.316;10.530;2024-01-07T00:28:34;-0.80;99.90
16479;DHT22;8350;52.316;10.530;2024-01-07T00:31:00;-0.80;99.90
16479;DHT22;8350;52.316;10.530;2024-01-07T00:33:27;-0.80;99.90
16479;DHT22;8350;52.316;10.530;2024-01-07T00:35:55;-0.80;99.90
16479;DHT22;8350;52.316;10.530;2024-01-07T00:38:22;-0.80;99.90
16479;DHT22;8350;52.316;10.530;2024-01-07T00:40:49;-0.80;99.90
16479;DHT22;8350;52.316;10.530;2024-01-07T00:43:18;-0.80;99.90
16479;DHT22;8350;52.316;10.530;2024-01-07T00:45:46;-0.90;99.90
16479;DHT22;8350;52.316;10.530;2024-01-07T00:48:15;-0.90;99.90
16479;DHT22;8350;52.316;10.530;2024-01-07T00:50:44;-0.90;99.90
16479;DHT22;8350;52.316;10.530;2024-01-07T00:53:10;-0.90;99.90
16479;DHT22;8350;52.316;10.530;2024-01-07T00:55:37;-1.00;99.90
16479;DHT22;8350;52.316;10.530;2024-01-07T00:58:04;-0.90;99.90
16479;DHT22;8350;52.316;10.530;2024-01-07T01:00:31;-1.00;99.90
16479;DHT22;8350;52.316;10.530;2024-01-07T01:03:00;-1.00;99.90
16479;DHT22;8350;52.316;10.530;2024-01-07T01:05:27;-1.00;99.90
16479;DHT22;8350;52.316;10.530;2024-01-07T01:07:54;-1.00;99.90
16479;DHT22;8350;52.316;10.530;2024-01-07T01:10:21;-1.00;99.90
16479;DHT22;8350;52.316;10.530;2024-01-07T01:12:56;-1.00;99.90
16479;DHT22;8350;52.316;10.530;2024-01-07T01:15:23;-1.00;99.90
16479;DHT22;8350;52.316;10.530;2024-01-07T01:17:50;-1.10;99.90
16479;DHT22;8350;52.316;10.530;2024-01-07T01:20:18;-1.10;99.90
16479;DHT22;8350;52.316;10.530;2024-01-07T01:22:45;-1.10;99.90
16479;DHT22;8350;52.316;10.530;2024-01-07T01:25:12;-1.10;99.90
16479;DHT22;8350;52.316;10.530;2024-01-07T01:27:41;-1.10;99.90
16479;DHT22;8350;52.316;10.530;2024-01-07T01:30:08;-1.10;99.90
16479;DHT22;8350;52.316;10.530;2024-01-07T01:32:41;-1.10;99.90
16479;DHT22;8350;52.316;10.530;2024-01-07T01:35:09;-1.20;99.90
16479;DHT22;8350;52.316;10.530;2024-01-07T01:37:38;-1.10;99.90
16479;DHT22;8350;52.316;10.530;2024-01-07T01:40:08;-1.20;99.90
16479;DHT22;8350;52.316;10.530;2024-01-07T01:42:38;-1.20;99.90
16479;DHT22;8350;52.316;10.530;2024-01-07T01:45:05;-1.20;99.90
16479;DHT22;8350;52.316;10.530;2024-01-07T01:47:32;-1.30;99.90
16479;DHT22;8350;52.316;10.530;2024-01-07T01:49:59;-1.20;99.90
16479;DHT22;8350;52.316;10.530;2024-01-07T01:52:26;-1.20;99.90
16479;DHT22;8350;52.316;10.530;2024-01-07T01:54:54;-1.20;99.90
16479;DHT22;8350;52.316;10.530;2024-01-07T01:57:22;-1.20;99.90
16479;DHT22;8350;52.316;10.530;2024-01-07T01:59:51;-1.20;99.90
16479;DHT22;8350;52.316;10.530;2024-01-07T02:02:18;-1.20;99.90
16479;DHT22;8350;52.316;10.530;2024-01-07T02:04:46;-1.20;99.90
16479;DHT22;8350;52.316;10.530;2024-01-07T02:07:13;-1.20;99.90
16479;DHT22;8350;52.316;10.530;2024-01-07T02:09:40;-1.30;99.90
16479;DHT22;8350;52.316;10.530;2024-01-07T02:12:08;-1.30;99.90
16479;DHT22;8350;52.316;10.530;2024-01-07T02:14:37;-1.30;99.90
16479;DHT22;8350;52.316;10.530;2024-01-07T02:17:05;-1.30;99.90
16479;DHT22;8350;52.316;10.530;2024-01-07T02:19:32;-1.30;99.90
16479;DHT22;8350;52.316;10.530;2024-01-07T02:21:59;-1.30;99.90
16479;DHT22;8350;52.316;10.530;2024-01-07T02:24:27;-1.30;99.90
16479;DHT22;8350;52.316;10.530;2024-01-07T02:26:55;-1.40;99.90
16479;DHT22;8350;52.316;10.530;2024-01-07T02:29:22;-1.40;99.90
16479;DHT22;8350;52.316;10.530;2024-01-07T02:31:49;-1.40;99.90
16479;DHT22;8350;52.316;10.530;2024-01-07T02:34:19;-1.40;99.90
16479;DHT22;8350;52.316;10.530;2024-01-07T02:36:46;-1.40;99.90
16479;DHT22;8350;52.316;10.530;2024-01-07T02:39:13;-1.40;99.90
16479;DHT22;8350;52.316;10.530;2024-01-07T02:41:42;-1.40;99.90
16479;DHT22;8350;52.316;10.530;2024-01-07T02:44:09;-1.40;99.90
16479;DHT22;8350;52.316;10.530;2024-01-07T02:46:36;-1.40;99.90
16479;DHT22;8350;52.316;10.530;2024-01-07T02:49:03;-1.30;99.90
16479;DHT22;8350;52.316;10.530;2024-01-07T02:51:32;-1.40;99.90
16479;DHT22;8350;52.316;10.530;2024-01-07T02:53:59;-1.40;99.90
16479;DHT22;8350;52.316;10.530;2024-01-07T02:56:26;-1.50;99.90
16479;DHT22;8350;52.316;10.530;2024-01-07T02:58:54;-1.40;99.90
16479;DHT22;8350;52.316;10.530;2024-01-07T03:01:22;-1.50;99.90
16479;DHT22;8350;52.316;10.530;2024-01-07T03:03:49;-1.50;99.90
16479;DHT22;8350;52.316;10.530;2024-01-07T03:06:16;-1.50;99.90
16479;DHT22;8350;52.316;10.530;2024-01-07T03:08:43;-1.50;99.90
16479;DHT22;8350;52.316;10.530;2024-01-07T03:11:10;-1.50;99.90
16479;DHT22;8350;52.316;10.530;2024-01-07T03:13:37;-1.60;99.90
16479;DHT22;8350;52.316;10.530;2024-01-07T03:16:06;-1.60;99.90
16479;DHT22;8350;52.316;10.530;2024-01-07T03:18:33;-1.60;99.90
16479;DHT22;8350;52.316;10.530;2024-01-07T03:21:00;-1.50;99.90
16479;DHT22;8350;52.316;10.530;2024-01-07T03:23:27;-1.50;99.90
16479;DHT22;8350;52.316;10.530;2024-01-07T03:25:54;-1.50;99.90
16479;DHT22;8350;52.316;10.530;2024-01-07T03:28:24;-1.50;99.90
16479;DHT22;8350;52.316;10.530;2024-01-07T03:30:51;-1.50;99.90
16479;DHT22;8350;52.316;10.530;2024-01-07T03:33:19;-1.50;99.90
16479;DHT22;8350;52.316;10.530;2024-01-07T03:35:46;-1.50;99.90
16479;DHT22;8350;52.316;10.530;2024-01-07T03:38:13;-1.50;99.90
16479;DHT22;8350;52.316;10.530;2024-01-07T03:40:40;-1.50;99.90
16479;DHT22;8350;52.316;10.530;2024-01-07T03:43:07;-1.50;99.90
16479;DHT22;8350;52.316;10.530;2024-01-07T03:45:34;-1.50;99.90
16479;DHT22;8350;52.316;10.530;2024-01-07T03:48:02;-1.50;99.90
16479;DHT22;8350;52.316;10.530;2024-01-07T03:50:30;-1.50;99.90
16479;DHT22;8350;52.316;10.530;2024-01-07T03:52:57;-1.50;99.90
16479;DHT22;8350;52.316;10.530;2024-01-07T03:55:24;-1.50;99.90
16479;DHT22;8350;52.316;10.530;2024-01-07T03:57:54;-1.50;99.90
16479;DHT22;8350;52.316;10.530;2024-01-07T04:00:23;-1.50;99.90
16479;DHT22;8350;52.316;10.530;2024-01-07T04:02:50;-1.50;99.90
16479;DHT22;8350;52.316;10.530;2024-01-07T04:05:17;-1.50;99.90
16479;DHT22;8350;52.316;10.530;2024-01-07T04:07:45;-1.50;99.90
16479;DHT22;8350;52.316;10.530;2024-01-07T04:10:12;-1.60;99.90
16479;DHT22;8350;52.316;10.530;2024-01-07T04:12:51;-1.50;99.90
16479;DHT22;8350;52.316;10.530;2024-01-07T04:15:20;-1.50;99.90
16479;DHT22;8350;52.316;10.530;2024-01-07T04:17:47;-1.50;99.90
16479;DHT22;8350;52.316;10.530;2024-01-07T04:20:14;-1.50;99.90
16479;DHT22;8350;52.316;10.530;2024-01-07T04:22:41;-1.50;99.90
16479;DHT22;8350;52.316;10.530;2024-01-07T04:25:09;-1.50;99.90
16479;DHT22;8350;52.316;10.530;2024-01-07T04:27:42;-1.50;99.90
16479;DHT22;8350;52.316;10.530;2024-01-07T04:30:10;-1.50;99.90
16479;DHT22;8350;52.316;10.530;2024-01-07T04:32:36;-1.50;99.90
16479;DHT22;8350;52.316;10.530;2024-01-07T04:35:04;-1.60;99.90
16479;DHT22;8350;52.316;10.530;2024-01-07T04:37:32;-1.60;99.90
16479;DHT22;8350;52.316;10.530;2024-01-07T04:39:59;-1.60;99.90
16479;DHT22;8350;52.316;10.530;2024-01-07T04:42:27;-1.60;99.90
16479;DHT22;8350;52.316;10.530;2024-01-07T04:44:54;-1.60;99.90
16479;DHT22;8350;52.316;10.530;2024-01-07T04:47:26;-1.60;99.90
16479;DHT22;8350;52.316;10.530;2024-01-07T04:49:53;-1.70;99.90
16479;DHT22;8350;52.316;10.530;2024-01-07T04:52:23;-1.60;99.90
16479;DHT22;8350;52.316;10.530;2024-01-07T04:54:52;-1.70;99.90
16479;DHT22;8350;52.316;10.530;2024-01-07T04:57:20;-1.70;99.90
16479;DHT22;8350;52.316;10.530;2024-01-07T04:59:52;-1.70;99.90
16479;DHT22;8350;52.316;10.530;2024-01-07T05:02:19;-1.70;99.90
16479;DHT22;8350;52.316;10.530;2024-01-07T05:04:46;-1.70;99.90
16479;DHT22;8350;52.316;10.530;2024-01-07T05:07:13;-1.80;99.90
16479;DHT22;8350;52.316;10.530;2024-01-07T05:09:40;-1.80;99.90
16479;DHT22;8350;52.316;10.530;2024-01-07T05:12:07;-1.90;99.90
16479;DHT22;8350;52.316;10.530;2024-01-07T05:14:34;-1.90;99.90
16479;DHT22;8350;52.316;10.530;2024-01-07T05:17:04;-1.90;99.90
16479;DHT22;8350;52.316;10.530;2024-01-07T05:19:31;-1.90;99.90
16479;DHT22;8350;52.316;10.530;2024-01-07T05:21:58;-2.00;99.90
16479;DHT22;8350;52.316;10.530;2024-01-07T05:24:25;-2.00;99.90
16479;DHT22;8350;52.316;10.530;2024-01-07T05:26:52;-2.00;99.90
16479;DHT22;8350;52.316;10.530;2024-01-07T05:29:20;-2.00;99.90
16479;DHT22;8350;52.316;10.530;2024-01-07T05:31:47;-2.00;99.90
16479;DHT22;8350;52.316;10.530;2024-01-07T05:34:16;-2.10;99.90
16479;DHT22;8350;52.316;10.530;2024-01-07T05:36:44;-2.00;99.90
16479;DHT22;8350;52.316;10.530;2024-01-07T05:39:11;-2.10;99.90
16479;DHT22;8350;52.316;10.530;2024-01-07T05:41:38;-2.10;99.90
16479;DHT22;8350;52.316;10.530;2024-01-07T05:44:08;-2.20;99.90
16479;DHT22;8350;52.316;10.530;2024-01-07T05:46:38;-2.10;99.90
16479;DHT22;8350;52.316;10.530;2024-01-07T05:49:05;-2.10;99.90
16479;DHT22;8350;52.316;10.530;2024-01-07T05:51:39;-2.20;99.90
16479;DHT22;8350;52.316;10.530;2024-01-07T05:54:06;-2.20;99.90
16479;DHT22;8350;52.316;10.530;2024-01-07T05:56:40;-2.30;99.90
16479;DHT22;8350;52.316;10.530;2024-01-07T05:59:07;-2.30;99.90
16479;DHT22;8350;52.316;10.530;2024-01-07T06:01:34;-2.30;99.90
16479;DHT22;8350;52.316;10.530;2024-01-07T06:04:01;-2.30;99.90
16479;DHT22;8350;52.316;10.530;2024-01-07T06:06:28;-2.30;99.90
16479;DHT22;8350;52.316;10.530;2024-01-07T06:08:56;-2.40;99.90
16479;DHT22;8350;52.316;10.530;2024-01-07T06:11:33;-2.40;99.90
16479;DHT22;8350;52.316;10.530;2024-01-07T06:13:59;-2.40;99.90
16479;DHT22;8350;52.316;10.530;2024-01-07T06:16:26;-2.40;99.90
16479;DHT22;8350;52.316;10.530;2024-01-07T06:18:53;-2.40;99.90
16479;DHT22;8350;52.316;10.530;2024-01-07T06:21:20;-2.40;99.90
16479;DHT22;8350;52.316;10.530;2024-01-07T06:23:47;-2.30;99.90
16479;DHT22;8350;52.316;10.530;2024-01-07T06:26:16;-2.30;99.90
16479;DHT22;8350;52.316;10.530;2024-01-07T06:28:43;-2.30;99.90
16479;DHT22;8350;52.316;10.530;2024-01-07T06:31:10;-2.40;99.90
16479;DHT22;8350;52.316;10.530;2024-01-07T06:33:37;-2.40;99.90
16479;DHT22;8350;52.316;10.530;2024-01-07T06:36:08;-2.50;99.90
16479;DHT22;8350;52.316;10.530;2024-01-07T06:38:37;-2.50;99.90
16479;DHT22;8350;52.316;10.530;2024-01-07T06:41:05;-2.50;99.90
16479;DHT22;8350;52.316;10.530;2024-01-07T06:43:34;-2.50;99.90
16479;DHT22;8350;52.316;10.530;2024-01-07T06:46:01;-2.50;99.90
16479;DHT22;8350;52.316;10.530;2024-01-07T06:48:28;-2.50;99.90
16479;DHT22;8350;52.316;10.530;2024-01-07T06:50:55;-2.50;99.90
16479;DHT22;8350;52.316;10.530;2024-01-07T06:53:24;-2.40;99.90
16479;DHT22;8350;52.316;10.530;2024-01-07T06:55:51;-2.40;99.90
16479;DHT22;8350;52.316;10.530;2024-01-07T06:58:17;-2.40;99.90
16479;DHT22;8350;52.316;10.530;2024-01-07T07:00:46;-2.40;99.90
16479;DHT22;8350;52.316;10.530;2024-01-07T07:03:13;-2.40;99.90
16479;DHT22;8350;52.316;10.530;2024-01-07T07:05:40;-2.40;99.90
16479;DHT22;8350;52.316;10.530;2024-01-07T07:08:07;-2.40;99.90
16479;DHT22;8350;52.316;10.530;2024-01-07T07:10:39;-2.40;99.90
16479;DHT22;8350;52.316;10.530;2024-01-07T07:13:06;-2.30;99.90
16479;DHT22;8350;52.316;10.530;2024-01-07T07:15:34;-2.30;99.90
16479;DHT22;8350;52.316;10.530;2024-01-07T07:18:05;-2.30;99.90
16479;DHT22;8350;52.316;10.530;2024-01-07T07:20:33;-2.30;99.90
16479;DHT22;8350;52.316;10.530;2024-01-07T07:23:00;-2.30;99.90
16479;DHT22;8350;52.316;10.530;2024-01-07T07:25:36;-2.20;99.90
16479;DHT22;8350;52.316;10.530;2024-01-07T07:28:03;-2.20;99.90
16479;DHT22;8350;52.316;10.530;2024-01-07T07:30:30;-2.20;99.90
16479;DHT22;8350;52.316;10.530;2024-01-07T07:32:57;-2.20;99.90
16479;DHT22;8350;52.316;10.530;2024-01-07T07:35:26;-2.20;99.90
16479;DHT22;8350;52.316;10.530;2024-01-07T07:37:54;-2.20;99.90
16479;DHT22;8350;52.316;10.530;2024-01-07T07:40:20;-2.20;99.90
16479;DHT22;8350;52.316;10.530;2024-01-07T07:42:47;-2.20;99.90
16479;DHT22;8350;52.316;10.530;2024-01-07T07:45:15;-2.20;99.90
16479;DHT22;8350;52.316;10.530;2024-01-07T07:47:42;-2.20;99.90
16479;DHT22;8350;52.316;10.530;2024-01-07T07:50:10;-2.20;99.90
16479;DHT22;8350;52.316;10.530;2024-01-07T07:52:38;-2.10;99.90
16479;DHT22;8350;52.316;10.530;2024-01-07T07:55:06;-2.10;99.90
16479;DHT22;8350;52.316;10.530;2024-01-07T07:57:36;-2.10;99.90
16479;DHT22;8350;52.316;10.530;2024-01-07T08:00:04;-2.00;99.90
16479;DHT22;8350;52.316;10.530;2024-01-07T08:02:31;-2.10;99.90
16479;DHT22;8350;52.316;10.530;2024-01-07T08:04:58;-2.00;99.90
16479;DHT22;8350;52.316;10.530;2024-01-07T08:07:25;-1.90;99.90
16479;DHT22;8350;52.316;10.530;2024-01-07T08:09:53;-1.90;99.90
16479;DHT22;8350;52.316;10.530;2024-01-07T08:12:22;-2.00;99.90
16479;DHT22;8350;52.316;10.530;2024-01-07T08:14:49;-2.00;99.90
16479;DHT22;8350;52.316;10.530;2024-01-07T08:17:16;-1.90;99.90
16479;DHT22;8350;52.316;10.530;2024-01-07T08:19:46;-2.00;99.90
16479;DHT22;8350;52.316;10.530;2024-01-07T08:22:13;-2.00;99.90
16479;DHT22;8350;52.316;10.530;2024-01-07T08:24:40;-2.00;99.90
16479;DHT22;8350;52.316;10.530;2024-01-07T08:27:09;-1.90;99.90
16479;DHT22;8350;52.316;10.530;2024-01-07T08:29:36;-1.90;99.90
16479;DHT22;8350;52.316;10.530;2024-01-07T08:32:04;-1.90;99.90
16479;DHT22;8350;52.316;10.530;2024-01-07T08:34:31;-1.90;99.90
16479;DHT22;8350;52.316;10.530;2024-01-07T08:36:58;-1.90;99.90
16479;DHT22;8350;52.316;10.530;2024-01-07T08:39:25;-1.90;99.90
16479;DHT22;8350;52.316;10.530;2024-01-07T08:41:55;-1.90;99.90
16479;DHT22;8350;52.316;10.530;2024-01-07T08:44:24;-1.80;99.90
16479;DHT22;8350;52.316;10.530;2024-01-07T08:46:50;-1.90;99.90
16479;DHT22;8350;52.316;10.530;2024-01-07T08:49:17;-1.90;99.90
16479;DHT22;8350;52.316;10.530;2024-01-07T08:51:44;-1.80;99.90
16479;DHT22;8350;52.316;10.530;2024-01-07T08:54:11;-1.90;99.90
16479;DHT22;8350;52.316;10.530;2024-01-07T08:56:40;-1.80;99.90
16479;DHT22;8350;52.316;10.530;2024-01-07T08:59:07;-1.80;99.90
16479;DHT22;8350;52.316;10.530;2024-01-07T09:01:37;-1.80;99.90
16479;DHT22;8350;52.316;10.530;2024-01-07T09:04:04;-1.80;99.90
16479;DHT22;8350;52.316;10.530;2024-01-07T09:06:33;-1.80;99.90
16479;DHT22;8350;52.316;10.530;2024-01-07T09:09:00;-1.80;99.90
16479;DHT22;8350;52.316;10.530;2024-01-07T09:11:31;-1.70;99.90
16479;DHT22;8350;52.316;10.530;2024-01-07T09:13:59;-1.70;99.90
16479;DHT22;8350;52.316;10.530;2024-01-07T09:16:26;-1.70;99.90
16479;DHT22;8350;52.316;10.530;2024-01-07T09:18:55;-1.70;99.90
16479;DHT22;8350;52.316;10.530;2024-01-07T09:21:22;-1.70;99.90
16479;DHT22;8350;52.316;10.530;2024-01-07T09:23:49;-1.70;99.90
16479;DHT22;8350;52.316;10.530;2024-01-07T09:26:16;-1.70;99.90
16479;DHT22;8350;52.316;10.530;2024-01-07T09:28:44;-1.70;99.90
16479;DHT22;8350;52.316;10.530;2024-01-07T09:31:11;-1.70;99.90
16479;DHT22;8350;52.316;10.530;2024-01-07T09:33:37;-1.70;99.90
16479;DHT22;8350;52.316;10.530;2024-01-07T09:36:07;-1.70;99.90
16479;DHT22;8350;52.316;10.530;2024-01-07T09:38:34;-1.60;99.90
16479;DHT22;8350;52.316;10.530;2024-01-07T09:41:03;-1.70;99.90
16479;DHT22;8350;52.316;10.530;2024-01-07T09:43:33;-1.60;99.90
16479;DHT22;8350;52.316;10.530;2024-01-07T09:46:06;-1.60;99.90
16479;DHT22;8350;52.316;10.530;2024-01-07T09:48:33;-1.60;99.90
16479;DHT22;8350;52.316;10.530;2024-01-07T09:51:01;-1.60;99.90
16479;DHT22;8350;52.316;10.530;2024-01-07T09:53:31;-1.60;99.90
16479;DHT22;8350;52.316;10.530;2024-01-07T09:56:06;-1.60;99.90
16479;DHT22;8350;52.316;10.530;2024-01-07T09:58:34;-1.60;99.90
16479;DHT22;8350;52.316;10.530;2024-01-07T10:01:01;-1.50;99.90
16479;DHT22;8350;52.316;10.530;2024-01-07T10:03:30;-1.50;99.90
16479;DHT22;8350;52.316;10.530;2024-01-07T10:05:57;-1.50;99.90
16479;DHT22;8350;52.316;10.530;2024-01-07T10:08:27;-1.50;99.90
16479;DHT22;8350;52.316;10.530;2024-01-07T10:10:55;-1.50;99.90
16479;DHT22;8350;52.316;10.530;2024-01-07T10:13:22;-1.40;99.90
16479;DHT22;8350;52.316;10.530;2024-01-07T10:15:49;-1.40;99.90
16479;DHT22;8350;52.316;10.530;2024-01-07T10:18:18;-1.40;99.90
16479;DHT22;8350;52.316;10.530;2024-01-07T10:20:45;-1.40;99.90
16479;DHT22;8350;52.316;10.530;2024-01-07T10:23:12;-1.40;99.90
16479;DHT22;8350;52.316;10.530;2024-01-07T10:25:41;-1.50;99.90
16479;DHT22;8350;52.316;10.530;2024-01-07T10:28:09;-1.50;99.90
16479;DHT22;8350;52.316;10.530;2024-01-07T10:30:38;-1.50;99.90
16479;DHT22;8350;52.316;10.530;2024-01-07T10:33:07;-1.40;99.90
16479;DHT22;8350;52.316;10.530;2024-01-07T10:35:49;-1.50;99.90
16479;DHT22;8350;52.316;10.530;2024-01-07T10:38:21;-1.40;99.90
16479;DHT22;8350;52.316;10.530;2024-01-07T10:40:50;-1.40;99.90
16479;DHT22;8350;52.316;10.530;2024-01-07T10:43:20;-1.40;99.90
16479;DHT22;8350;52.316;10.530;2024-01-07T10:45:50;-1.40;99.90
16479;DHT22;8350;52.316;10.530;2024-01-07T10:48:18;-1.40;99.90
16479;DHT22;8350;52.316;10.530;2024-01-07T10:50:45;-1.30;99.90
16479;DHT22;8350;52.316;10.530;2024-01-07T10:53:19;-1.40;99.90
16479;DHT22;8350;52.316;10.530;2024-01-07T10:55:54;-1.40;99.90
16479;DHT22;8350;52.316;10.530;2024-01-07T10:58:25;-1.30;99.90
16479;DHT22;8350;52.316;10.530;2024-01-07T11:00:53;-1.30;99.90
16479;DHT22;8350;52.316;10.530;2024-01-07T11:03:28;-1.30;99.90
16479;DHT22;8350;52.316;10.530;2024-01-07T11:06:01;-1.30;99.90
16479;DHT22;8350;52.316;10.530;2024-01-07T11:08:33;-1.30;99.90
16479;DHT22;8350;52.316;10.530;2024-01-07T11:11:06;-1.20;99.90
16479;DHT22;8350;52.316;10.530;2024-01-07T11:13:36;-1.20;99.90
16479;DHT22;8350;52.316;10.530;2024-01-07T11:16:04;-1.20;99.90
16479;DHT22;8350;52.316;10.530;2024-01-07T11:18:38;-1.10;99.90
16479;DHT22;8350;52.316;10.530;2024-01-07T11:21:05;-1.10;99.90
16479;DHT22;8350;52.316;10.530;2024-01-07T11:23:33;-1.10;99.90
16479;DHT22;8350;52.316;10.530;2024-01-07T11:26:03;-1.10;99.90
16479;DHT22;8350;52.316;10.530;2024-01-07T11:28:48;-1.10;99.90
16479;DHT22;8350;52.316;10.530;2024-01-07T11:31:19;-1.00;99.90
16479;DHT22;8350;52.316;10.530;2024-01-07T11:33:50;-1.00;99.90
16479;DHT22;8350;52.316;10.530;2024-01-07T11:36:17;-1.00;99.90
16479;DHT22;8350;52.316;10.530;2024-01-07T11:38:45;-1.00;99.90
16479;DHT22;8350;52.316;10.530;2024-01-07T11:41:12;-0.90;99.90
16479;DHT22;8350;52.316;10.530;2024-01-07T11:43:53;-1.00;99.90
16479;DHT22;8350;52.316;10.530;2024-01-07T11:46:21;-0.90;99.90
16479;DHT22;8350;52.316;10.530;2024-01-07T11:48:48;-0.80;99.90
16479;DHT22;8350;52.316;10.530;2024-01-07T11:51:16;-0.90;99.90
16479;DHT22;8350;52.316;10.530;2024-01-07T11:53:46;-0.90;99.90
16479;DHT22;8350;52.316;10.530;2024-01-07T11:56:13;-0.90;99.90
16479;DHT22;8350;52.316;10.530;2024-01-07T11:58:40;-0.80;99.90
16479;DHT22;8350;52.316;10.530;2024-01-07T12:01:08;-0.80;99.90
16479;DHT22;8350;52.316;10.530;2024-01-07T12:03:36;-0.90;99.90
16479;DHT22;8350;52.316;10.530;2024-01-07T12:06:04;-0.90;99.90
16479;DHT22;8350;52.316;10.530;2024-01-07T12:08:31;-0.80;99.90
16479;DHT22;8350;52.316;10.530;2024-01-07T12:10:59;-0.80;99.90
16479;DHT22;8350;52.316;10.530;2024-01-07T12:13:26;-0.90;99.90
16479;DHT22;8350;52.316;10.530;2024-01-07T12:15:53;-0.90;99.90
16479;DHT22;8350;52.316;10.530;2024-01-07T12:18:23;-1.00;99.90
16479;DHT22;8350;52.316;10.530;2024-01-07T12:20:56;-1.10;99.90
16479;DHT22;8350;52.316;10.530;2024-01-07T12:23:24;-1.00;99.90
16479;DHT22;8350;52.316;10.530;2024-01-07T12:25:51;-1.00;99.90
16479;DHT22;8350;52.316;10.530;2024-01-07T12:28:18;-1.00;99.90
16479;DHT22;8350;52.316;10.530;2024-01-07T12:30:47;-1.00;99.90
16479;DHT22;8350;52.316;10.530;2024-01-07T12:33:16;-1.00;99.90
16479;DHT22;8350;52.316;10.530;2024-01-07T12:35:45;-0.90;99.90
16479;DHT22;8350;52.316;10.530;2024-01-07T12:38:13;-0.90;99.90
16479;DHT22;8350;52.316;10.530;2024-01-07T12:40:40;-0.90;99.90
16479;DHT22;8350;52.316;10.530;2024-01-07T12:43:31;-0.90;99.90
16479;DHT22;8350;52.316;10.530;2024-01-07T12:46:23;-0.90;99.90
16479;DHT22;8350;52.316;10.530;2024-01-07T12:48:56;-0.90;99.90
16479;DHT22;8350;52.316;10.530;2024-01-07T12:51:33;-0.80;99.90
16479;DHT22;8350;52.316;10.530;2024-01-07T12:54:03;-0.70;99.90
16479;DHT22;8350;52.316;10.530;2024-01-07T12:56:29;-0.80;99.90
16479;DHT22;8350;52.316;10.530;2024-01-07T12:58:56;-0.80;99.90
16479;DHT22;8350;52.316;10.530;2024-01-07T13:01:59;-0.80;99.90
16479;DHT22;8350;52.316;10.530;2024-01-07T13:04:26;-0.80;99.90
16479;DHT22;8350;52.316;10.530;2024-01-07T13:06:55;-0.80;99.90
16479;DHT22;8350;52.316;10.530;2024-01-07T13:09:22;-0.80;99.90
16479;DHT22;8350;52.316;10.530;2024-01-07T13:11:49;-0.80;99.90
16479;DHT22;8350;52.316;10.530;2024-01-07T13:14:17;-0.80;99.90
16479;DHT22;8350;52.316;10.530;2024-01-07T13:16:43;-0.80;99.90
16479;DHT22;8350;52.316;10.530;2024-01-07T13:19:10;-0.80;99.90
16479;DHT22;8350;52.316;10.530;2024-01-07T13:21:38;-0.70;99.90
16479;DHT22;8350;52.316;10.530;2024-01-07T13:24:07;-0.70;99.90
16479;DHT22;8350;52.316;10.530;2024-01-07T13:26:34;-0.70;99.90
16479;DHT22;8350;52.316;10.530;2024-01-07T13:29:01;-0.70;99.90
16479;DHT22;8350;52.316;10.530;2024-01-07T13:31:29;-0.70;99.90
16479;DHT22;8350;52.316;10.530;2024-01-07T13:33:56;-0.70;99.90
16479;DHT22;8350;52.316;10.530;2024-01-07T13:36:23;-0.70;99.90
16479;DHT22;8350;52.316;10.530;2024-01-07T13:38:49;-0.70;99.90
16479;DHT22;8350;52.316;10.530;2024-01-07T13:41:19;-0.70;99.90
16479;DHT22;8350;52.316;10.530;2024-01-07T13:43:49;-0.70;99.90
16479;DHT22;8350;52.316;10.530;2024-01-07T13:46:27;-0.70;99.90
16479;DHT22;8350;52.316;10.530;2024-01-07T13:48:54;-0.60;99.90
16479;DHT22;8350;52.316;10.530;2024-01-07T13:51:20;-0.70;99.90
16479;DHT22;8350;52.316;10.530;2024-01-07T13:53:47;-0.60;99.90
16479;DHT22;8350;52.316;10.530;2024-01-07T13:56:14;-0.60;99.90
16479;DHT22;8350;52.316;10.530;2024-01-07T13:58:42;-0.60;99.90
16479;DHT22;8350;52.316;10.530;2024-01-07T14:01:12;-0.60;99.90
16479;DHT22;8350;52.316;10.530;2024-01-07T14:03:39;-0.50;99.90
16479;DHT22;8350;52.316;10.530;2024-01-07T14:06:06;-0.50;99.90
16479;DHT22;8350;52.316;10.530;2024-01-07T14:08:33;-0.50;99.90
16479;DHT22;8350;52.316;10.530;2024-01-07T14:11:00;-0.50;99.90
16479;DHT22;8350;52.316;10.530;2024-01-07T14:13:34;-0.60;99.90
16479;DHT22;8350;52.316;10.530;2024-01-07T14:16:04;-0.50;99.90
16479;DHT22;8350;52.316;10.530;2024-01-07T14:18:32;-0.50;99.90
16479;DHT22;8350;52.316;10.530;2024-01-07T14:20:59;-0.50;99.90
16479;DHT22;8350;52.316;10.530;2024-01-07T14:23:25;-0.50;99.90
16479;DHT22;8350;52.316;10.530;2024-01-07T14:25:52;-0.50;99.90
16479;DHT22;8350;52.316;10.530;2024-01-07T14:28:19;-0.50;99.90
16479;DHT22;8350;52.316;10.530;2024-01-07T14:30:46;-0.50;99.90
16479;DHT22;8350;52.316;10.530;2024-01-07T14:33:15;-0.50;99.90
16479;DHT22;8350;52.316;10.530;2024-01-07T14:35:42;-0.50;99.90
16479;DHT22;8350;52.316;10.530;2024-01-07T14:38:09;-0.60;99.90
16479;DHT22;8350;52.316;10.530;2024-01-07T14:40:35;-0.60;99.90
16479;DHT22;8350;52.316;10.530;2024-01-07T14:43:06;-0.60;99.90
16479;DHT22;8350;52.316;10.530;2024-01-07T14:45:34;-0.70;99.90
16479;DHT22;8350;52.316;10.530;2024-01-07T14:48:01;-0.70;99.90
16479;DHT22;8350;52.316;10.530;2024-01-07T14:50:30;-0.70;99.90
16479;DHT22;8350;52.316;10.530;2024-01-07T14:52:57;-0.70;99.90
16479;DHT22;8350;52.316;10.530;2024-01-07T14:55:24;-0.70;99.90
16479;DHT22;8350;52.316;10.530;2024-01-07T14:57:51;-0.70;99.90
16479;DHT22;8350;52.316;10.530;2024-01-07T15:00:18;-0.70;99.90
16479;DHT22;8350;52.316;10.530;2024-01-07T15:02:45;-0.70;99.90
16479;DHT22;8350;52.316;10.530;2024-01-07T15:05:20;-0.70;99.90
16479;DHT22;8350;52.316;10.530;2024-01-07T15:07:48;-0.80;99.90
16479;DHT22;8350;52.316;10.530;2024-01-07T15:10:16;-0.80;99.90
16479;DHT22;8350;52.316;10.530;2024-01-07T15:12:44;-0.80;99.90
16479;DHT22;8350;52.316;10.530;2024-01-07T15:15:14;-0.80;99.90
16479;DHT22;8350;52.316;10.530;2024-01-07T15:17:43;-0.80;99.90
16479;DHT22;8350;52.316;10.530;2024-01-07T15:20:14;-0.90;99.90
16479;DHT22;8350;52.316;10.530;2024-01-07T15:22:42;-0.90;99.90
16479;DHT22;8350;52.316;10.530;2024-01-07T15:25:11;-0.90;99.90
16479;DHT22;8350;52.316;10.530;2024-01-07T15:27:41;-0.90;99.90
16479;DHT22;8350;52.316;10.530;2024-01-07T15:30:08;-0.90;99.90
16479;DHT22;8350;52.316;10.530;2024-01-07T15:32:35;-0.90;99.90
16479;DHT22;8350;52.316;10.530;2024-01-07T15:35:03;-0.90;99.90
16479;DHT22;8350;52.316;10.530;2024-01-07T15:37:30;-0.90;99.90